createdAt,value
2018-11-20T00:00:47.417Z,997.26
2018-11-20T00:01:47.411Z,997.33
2018-11-20T00:02:47.384Z,997.25
2018-11-20T00:03:47.388Z,997.25
2018-11-20T00:04:47.370Z,997.21
2018-11-20T00:05:47.349Z,997.21
2018-11-20T00:06:47.350Z,997.08
2018-11-20T00:07:47.364Z,997.20
2018-11-20T00:08:47.354Z,997.06
2018-11-20T00:09:47.316Z,997.13
2018-11-20T00:10:47.303Z,997.13
2018-11-20T00:11:47.314Z,997.06
2018-11-20T00:12:47.266Z,996.80
2018-11-20T00:13:47.291Z,997.06
2018-11-20T00:14:47.243Z,997.08
2018-11-20T00:15:47.233Z,997.00
2018-11-20T00:16:47.216Z,997.04
2018-11-20T00:17:47.246Z,997.00
2018-11-20T00:18:47.228Z,996.99
2018-11-20T00:19:47.195Z,997.02
2018-11-20T00:20:47.202Z,996.91
2018-11-20T00:21:47.178Z,996.95
2018-11-20T00:22:47.156Z,996.89
2018-11-20T00:23:47.147Z,996.89
2018-11-20T00:24:47.159Z,996.93
2018-11-20T00:25:47.124Z,996.88
2018-11-20T00:26:47.120Z,996.93
2018-11-20T00:27:47.140Z,996.95
2018-11-20T00:28:47.145Z,996.93
2018-11-20T00:29:47.109Z,996.84
2018-11-20T00:30:47.116Z,997.02
2018-11-20T00:31:47.056Z,996.95
2018-11-20T00:32:47.048Z,996.98
2018-11-20T00:33:47.089Z,996.98
2018-11-20T00:34:47.050Z,997.08
2018-11-20T00:35:47.045Z,997.08
2018-11-20T00:36:47.008Z,997.06
2018-11-20T00:37:46.999Z,997.04
2018-11-20T00:38:47.003Z,996.97
2018-11-20T00:39:47.013Z,997.00
2018-11-20T00:40:47.046Z,996.86
2018-11-20T00:41:46.989Z,996.86
2018-11-20T00:42:46.991Z,996.93
2018-11-20T00:43:46.930Z,996.81
2018-11-20T00:44:46.927Z,996.91
2018-11-20T00:45:46.949Z,996.90
2018-11-20T00:46:46.936Z,996.92
2018-11-20T00:47:46.910Z,996.94
2018-11-20T00:48:46.869Z,996.86
2018-11-20T00:49:46.876Z,996.93
2018-11-20T00:50:46.901Z,996.91
2018-11-20T00:51:46.842Z,996.92
2018-11-20T00:52:46.888Z,996.93
2018-11-20T00:53:46.852Z,996.84
2018-11-20T00:54:46.811Z,996.82
2018-11-20T00:55:46.850Z,996.85
2018-11-20T00:56:46.788Z,996.78
2018-11-20T00:57:46.950Z,996.81
2018-11-20T00:58:46.820Z,996.81
2018-11-20T00:59:46.744Z,996.80
2018-11-20T01:00:46.799Z,996.87
2018-11-20T01:01:46.728Z,996.79
2018-11-20T01:02:46.709Z,996.80
2018-11-20T01:03:47.440Z,996.84
2018-11-20T01:04:46.745Z,996.82
2018-11-20T01:05:46.761Z,996.86
2018-11-20T01:06:46.718Z,996.90
2018-11-20T01:07:46.692Z,996.86
2018-11-20T01:08:46.701Z,996.90
2018-11-20T01:09:46.665Z,996.87
2018-11-20T01:10:46.621Z,996.89
2018-11-20T01:11:46.671Z,996.95
2018-11-20T01:12:46.632Z,996.85
2018-11-20T01:13:46.622Z,996.91
2018-11-20T01:14:46.620Z,996.93
2018-11-20T01:15:46.566Z,996.95
2018-11-20T01:16:46.593Z,997.00
2018-11-20T01:17:46.576Z,996.95
2018-11-20T01:18:46.554Z,996.99
2018-11-20T01:19:46.544Z,997.02
2018-11-20T01:20:46.556Z,997.02
2018-11-20T01:21:46.521Z,997.02
2018-11-20T01:22:46.503Z,996.94
2018-11-20T01:23:46.476Z,997.04
2018-11-20T01:24:46.496Z,997.00
2018-11-20T01:25:46.481Z,997.03
2018-11-20T01:26:46.455Z,996.95
2018-11-20T01:27:46.462Z,996.90
2018-11-20T01:28:46.425Z,996.91
2018-11-20T01:29:46.474Z,996.92
2018-11-20T01:30:46.421Z,997.00
2018-11-20T01:31:46.439Z,996.73
2018-11-20T01:32:46.386Z,996.86
2018-11-20T01:33:46.364Z,996.82
2018-11-20T01:34:46.353Z,996.74
2018-11-20T01:35:46.374Z,996.76
2018-11-20T01:36:46.366Z,996.75
2018-11-20T01:37:46.350Z,996.70
2018-11-20T01:38:46.334Z,996.72
2018-11-20T01:39:46.296Z,996.69
2018-11-20T01:40:46.302Z,996.69
2018-11-20T01:41:46.341Z,996.71
2018-11-20T01:42:46.290Z,996.59
2018-11-20T01:43:46.275Z,996.49
2018-11-20T01:44:46.258Z,996.44
2018-11-20T01:45:46.232Z,996.34
2018-11-20T01:46:46.315Z,996.43
2018-11-20T01:47:46.301Z,996.37
2018-11-20T01:48:46.211Z,996.43
2018-11-20T01:49:46.247Z,996.42
2018-11-20T01:50:46.216Z,996.40
2018-11-20T01:51:46.209Z,996.37
2018-11-20T01:52:46.169Z,996.32
2018-11-20T01:53:46.253Z,996.38
2018-11-20T01:54:46.138Z,996.37
2018-11-20T01:55:46.188Z,996.29
2018-11-20T01:56:46.157Z,996.27
2018-11-20T01:57:46.105Z,996.24
2018-11-20T01:58:46.162Z,996.19
2018-11-20T01:59:46.081Z,996.16
2018-11-20T02:00:46.071Z,996.21
2018-11-20T02:01:46.071Z,996.16
2018-11-20T02:02:46.081Z,996.19
2018-11-20T02:03:46.031Z,996.19
2018-11-20T02:04:46.046Z,996.16
2018-11-20T02:05:46.006Z,996.27
2018-11-20T02:06:46.002Z,996.21
2018-11-20T02:07:46.005Z,996.21
2018-11-20T02:08:45.996Z,996.22
2018-11-20T02:09:46.108Z,996.22
2018-11-20T02:10:45.953Z,996.17
2018-11-20T02:11:45.943Z,996.07
2018-11-20T02:12:45.943Z,996.14
2018-11-20T02:13:45.937Z,996.01
2018-11-20T02:14:45.946Z,995.93
2018-11-20T02:15:45.941Z,995.95
2018-11-20T02:16:45.899Z,995.92
2018-11-20T02:17:45.877Z,995.94
2018-11-20T02:18:45.937Z,995.99
2018-11-20T02:19:45.852Z,996.04
2018-11-20T02:20:45.841Z,995.94
2018-11-20T02:21:45.833Z,995.90
2018-11-20T02:22:45.866Z,995.97
2018-11-20T02:23:45.832Z,995.89
2018-11-20T02:24:45.810Z,995.91
2018-11-20T02:25:45.790Z,995.86
2018-11-20T02:26:45.805Z,995.80
2018-11-20T02:27:45.779Z,995.86
2018-11-20T02:28:45.778Z,995.90
2018-11-20T02:29:45.746Z,995.71
2018-11-20T02:30:45.753Z,995.75
2018-11-20T02:31:45.762Z,995.81
2018-11-20T02:32:45.743Z,995.89
2018-11-20T02:33:45.693Z,995.81
2018-11-20T02:34:45.684Z,995.83
2018-11-20T02:35:45.685Z,995.79
2018-11-20T02:36:45.689Z,995.79
2018-11-20T02:37:45.701Z,995.81
2018-11-20T02:38:45.666Z,995.79
2018-11-20T02:39:45.629Z,995.79
2018-11-20T02:40:45.640Z,995.79
2018-11-20T02:41:45.623Z,995.79
2018-11-20T02:42:45.629Z,995.77
2018-11-20T02:43:45.591Z,995.88
2018-11-20T02:44:45.597Z,995.76
2018-11-20T02:45:45.605Z,995.86
2018-11-20T02:46:45.560Z,995.79
2018-11-20T02:47:45.568Z,995.87
2018-11-20T02:48:45.534Z,995.85
2018-11-20T02:49:45.532Z,995.77
2018-11-20T02:50:45.515Z,995.80
2018-11-20T02:51:45.545Z,995.89
2018-11-20T02:52:45.504Z,995.86
2018-11-20T02:53:45.505Z,995.90
2018-11-20T02:54:45.495Z,995.89
2018-11-20T02:55:45.460Z,995.89
2018-11-20T02:56:45.476Z,995.90
2018-11-20T02:57:45.440Z,995.85
2018-11-20T02:58:45.469Z,995.84
2018-11-20T02:59:45.430Z,995.83
2018-11-20T03:00:45.402Z,995.89
2018-11-20T03:01:45.406Z,995.86
2018-11-20T03:02:45.421Z,995.88
2018-11-20T03:03:45.479Z,995.96
2018-11-20T03:04:45.363Z,995.93
2018-11-20T03:05:45.373Z,995.91
2018-11-20T03:06:45.334Z,996.00
2018-11-20T03:07:45.401Z,995.95
2018-11-20T03:08:45.309Z,995.92
2018-11-20T03:09:45.302Z,995.87
2018-11-20T03:10:45.309Z,995.93
2018-11-20T03:11:45.293Z,995.95
2018-11-20T03:12:45.267Z,995.91
2018-11-20T03:13:45.254Z,995.88
2018-11-20T03:14:45.251Z,995.96
2018-11-20T03:15:45.275Z,995.88
2018-11-20T03:16:45.245Z,995.93
2018-11-20T03:17:45.204Z,995.95
2018-11-20T03:18:45.240Z,995.90
2018-11-20T03:19:45.200Z,995.92
2018-11-20T03:20:45.176Z,995.88
2018-11-20T03:21:45.210Z,995.98
2018-11-20T03:22:45.179Z,995.92
2018-11-20T03:23:45.194Z,995.81
2018-11-20T03:24:45.139Z,995.87
2018-11-20T03:25:45.122Z,995.78
2018-11-20T03:26:45.201Z,995.72
2018-11-20T03:27:45.098Z,995.73
2018-11-20T03:28:45.118Z,995.84
2018-11-20T03:29:45.080Z,995.75
2018-11-20T03:30:45.078Z,995.75
2018-11-20T03:31:45.082Z,995.77
2018-11-20T03:32:45.051Z,995.71
2018-11-20T03:33:45.047Z,995.80
2018-11-20T03:34:45.377Z,995.71
2018-11-20T03:35:45.018Z,995.68
2018-11-20T03:36:45.020Z,995.66
2018-11-20T03:37:45.016Z,995.66
2018-11-20T03:38:45.004Z,995.73
2018-11-20T03:39:44.997Z,995.69
2018-11-20T03:40:44.970Z,995.77
2018-11-20T03:41:44.944Z,995.75
2018-11-20T03:42:44.963Z,995.70
2018-11-20T03:43:44.919Z,995.76
2018-11-20T03:44:44.915Z,995.66
2018-11-20T03:45:44.905Z,995.58
2018-11-20T03:46:44.927Z,995.60
2018-11-20T03:47:44.946Z,995.62
2018-11-20T03:48:44.921Z,995.63
2018-11-20T03:49:44.854Z,995.57
2018-11-20T03:50:44.865Z,995.62
2018-11-20T03:51:44.869Z,995.55
2018-11-20T03:52:44.824Z,995.45
2018-11-20T03:53:44.810Z,995.49
2018-11-20T03:54:44.798Z,995.51
2018-11-20T03:55:44.816Z,995.40
2018-11-20T03:56:44.825Z,995.53
2018-11-20T03:57:44.767Z,995.56
2018-11-20T03:58:44.749Z,995.54
2018-11-20T03:59:44.740Z,995.47
2018-11-20T04:00:44.734Z,995.56
2018-11-20T04:01:44.770Z,995.48
2018-11-20T04:02:44.709Z,995.47
2018-11-20T04:03:44.717Z,995.46
2018-11-20T04:04:44.690Z,995.44
2018-11-20T04:05:44.699Z,995.40
2018-11-20T04:06:44.674Z,995.42
2018-11-20T04:07:44.656Z,995.31
2018-11-20T04:08:44.647Z,995.37
2018-11-20T04:09:44.639Z,995.32
2018-11-20T04:10:44.653Z,995.28
2018-11-20T04:11:44.633Z,995.24
2018-11-20T04:12:44.628Z,995.27
2018-11-20T04:13:44.608Z,995.21
2018-11-20T04:14:44.597Z,995.21
2018-11-20T04:15:44.561Z,995.09
2018-11-20T04:16:44.559Z,994.98
2018-11-20T04:17:44.609Z,995.08
2018-11-20T04:18:44.566Z,995.05
2018-11-20T04:19:44.528Z,994.94
2018-11-20T04:20:44.510Z,994.93
2018-11-20T04:21:44.509Z,994.97
2018-11-20T04:22:44.501Z,994.98
2018-11-20T04:23:44.502Z,994.92
2018-11-20T04:24:44.469Z,994.94
2018-11-20T04:25:44.456Z,994.84
2018-11-20T04:26:44.480Z,994.93
2018-11-20T04:27:44.442Z,994.89
2018-11-20T04:28:44.426Z,994.86
2018-11-20T04:29:44.454Z,994.82
2018-11-20T04:30:44.410Z,994.80
2018-11-20T04:31:44.410Z,994.80
2018-11-20T04:32:44.412Z,994.83
2018-11-20T04:33:44.364Z,994.81
2018-11-20T04:34:44.390Z,994.84
2018-11-20T04:35:44.341Z,994.87
2018-11-20T04:36:44.348Z,994.89
2018-11-20T04:37:44.328Z,994.86
2018-11-20T04:38:44.332Z,994.93
2018-11-20T04:39:44.341Z,994.89
2018-11-20T04:40:44.323Z,994.96
2018-11-20T04:41:44.278Z,994.94
2018-11-20T04:42:44.279Z,994.98
2018-11-20T04:43:44.257Z,994.99
2018-11-20T04:44:44.252Z,994.93
2018-11-20T04:45:44.269Z,994.97
2018-11-20T04:46:44.317Z,994.89
2018-11-20T04:47:44.242Z,994.88
2018-11-20T04:48:44.242Z,994.95
2018-11-20T04:49:44.236Z,994.96
2018-11-20T04:50:44.183Z,994.90
2018-11-20T04:51:44.301Z,995.10
2018-11-20T04:52:44.177Z,994.88
2018-11-20T04:53:44.187Z,994.88
2018-11-20T04:54:44.153Z,994.80
2018-11-20T04:55:44.134Z,994.89
2018-11-20T04:56:44.164Z,994.82
2018-11-20T04:57:44.137Z,994.82
2018-11-20T04:58:44.116Z,994.87
2018-11-20T04:59:44.088Z,994.81
2018-11-20T05:00:44.070Z,994.83
2018-11-20T05:01:44.105Z,994.81
2018-11-20T05:02:44.127Z,994.82
2018-11-20T05:03:44.044Z,994.86
2018-11-20T05:04:44.042Z,994.86
2018-11-20T05:05:44.006Z,994.93
2018-11-20T05:06:44.096Z,994.87
2018-11-20T05:07:43.994Z,994.90
2018-11-20T05:08:43.991Z,994.90
2018-11-20T05:09:43.965Z,994.87
2018-11-20T05:10:43.985Z,994.92
2018-11-20T05:11:43.961Z,995.02
2018-11-20T05:12:43.950Z,994.94
2018-11-20T05:13:43.939Z,994.98
2018-11-20T05:14:43.908Z,995.00
2018-11-20T05:15:43.901Z,995.16
2018-11-20T05:16:43.970Z,994.98
2018-11-20T05:17:43.899Z,995.03
2018-11-20T05:18:43.865Z,995.09
2018-11-20T05:19:43.883Z,995.12
2018-11-20T05:20:43.845Z,995.10
2018-11-20T05:21:43.841Z,995.15
2018-11-20T05:22:43.892Z,995.14
2018-11-20T05:23:43.816Z,995.15
2018-11-20T05:24:43.813Z,995.11
2018-11-20T05:25:43.806Z,995.08
2018-11-20T05:26:43.788Z,995.17
2018-11-20T05:27:43.809Z,995.10
2018-11-20T05:28:43.777Z,995.15
2018-11-20T05:29:43.754Z,995.17
2018-11-20T05:30:43.736Z,995.07
2018-11-20T05:31:43.732Z,995.16
2018-11-20T05:32:43.744Z,995.08
2018-11-20T05:33:43.706Z,995.02
2018-11-20T05:34:43.708Z,994.98
2018-11-20T05:35:43.708Z,995.00
2018-11-20T05:36:43.674Z,995.02
2018-11-20T05:37:43.701Z,995.01
2018-11-20T05:38:43.672Z,994.92
2018-11-20T05:39:43.644Z,995.10
2018-11-20T05:40:43.643Z,995.00
2018-11-20T05:41:43.641Z,995.01
2018-11-20T05:42:43.600Z,994.99
2018-11-20T05:43:43.591Z,995.02
2018-11-20T05:44:43.582Z,994.92
2018-11-20T05:45:43.582Z,995.04
2018-11-20T05:46:43.742Z,994.99
2018-11-20T05:47:43.557Z,994.98
2018-11-20T05:48:43.568Z,994.95
2018-11-20T05:49:43.573Z,994.93
2018-11-20T05:50:43.523Z,994.98
2018-11-20T05:51:43.511Z,994.92
2018-11-20T05:52:43.496Z,994.95
2018-11-20T05:53:43.517Z,994.97
2018-11-20T05:54:43.465Z,995.04
2018-11-20T05:55:43.457Z,994.94
2018-11-20T05:56:43.525Z,994.95
2018-11-20T05:57:43.434Z,994.98
2018-11-20T05:58:43.423Z,994.90
2018-11-20T05:59:43.426Z,994.99
2018-11-20T06:00:43.410Z,994.88
2018-11-20T06:01:43.413Z,994.83
2018-11-20T06:02:43.381Z,994.92
2018-11-20T06:03:43.404Z,994.80
2018-11-20T06:04:43.379Z,994.70
2018-11-20T06:05:43.348Z,994.72
2018-11-20T06:06:43.350Z,994.70
2018-11-20T06:07:43.327Z,994.75
2018-11-20T06:08:43.391Z,994.65
2018-11-20T06:09:43.329Z,994.65
2018-11-20T06:10:43.293Z,994.74
2018-11-20T06:11:43.301Z,994.64
2018-11-20T06:12:43.323Z,994.62
2018-11-20T06:13:43.308Z,994.68
2018-11-20T06:14:43.247Z,994.62
2018-11-20T06:15:43.241Z,994.72
2018-11-20T06:16:43.279Z,994.72
2018-11-20T06:17:43.208Z,994.71
2018-11-20T06:18:43.294Z,994.78
2018-11-20T06:19:43.192Z,994.82
2018-11-20T06:20:43.199Z,994.70
2018-11-20T06:21:43.169Z,994.80
2018-11-20T06:22:43.168Z,994.74
2018-11-20T06:23:43.177Z,994.77
2018-11-20T06:24:43.153Z,994.78
2018-11-20T06:25:43.124Z,994.88
2018-11-20T06:26:43.108Z,994.90
2018-11-20T06:27:43.114Z,994.91
2018-11-20T06:28:43.161Z,994.92
2018-11-20T06:29:43.134Z,994.89
2018-11-20T06:30:43.091Z,994.97
2018-11-20T06:31:43.065Z,994.98
2018-11-20T06:32:43.065Z,995.05
2018-11-20T06:33:43.034Z,995.08
2018-11-20T06:34:43.053Z,995.02
2018-11-20T06:35:43.019Z,995.05
2018-11-20T06:36:43.035Z,995.02
2018-11-20T06:37:42.996Z,995.04
2018-11-20T06:38:42.985Z,994.97
2018-11-20T06:39:42.970Z,995.08
2018-11-20T06:40:42.961Z,995.16
2018-11-20T06:41:42.965Z,995.08
2018-11-20T06:42:42.966Z,995.07
2018-11-20T06:43:42.942Z,995.12
2018-11-20T06:44:42.955Z,995.14
2018-11-20T06:45:42.925Z,995.16
2018-11-20T06:46:42.920Z,995.12
2018-11-20T06:47:42.899Z,995.11
2018-11-20T06:48:42.874Z,995.19
2018-11-20T06:49:43.584Z,995.11
2018-11-20T06:50:43.018Z,995.12
2018-11-20T06:51:42.850Z,995.14
2018-11-20T06:52:42.850Z,995.17
2018-11-20T06:53:42.976Z,995.08
2018-11-20T06:54:42.833Z,995.13
2018-11-20T06:55:42.790Z,995.08
2018-11-20T06:56:42.804Z,995.05
2018-11-20T06:57:42.788Z,995.14
2018-11-20T06:58:42.762Z,995.14
2018-11-20T06:59:42.746Z,995.10
2018-11-20T07:00:42.749Z,995.09
2018-11-20T07:01:42.843Z,995.11
2018-11-20T07:02:42.721Z,995.02
2018-11-20T07:03:42.702Z,995.01
2018-11-20T07:04:42.740Z,995.10
2018-11-20T07:05:42.676Z,995.14
2018-11-20T07:06:42.689Z,995.11
2018-11-20T07:07:42.800Z,995.15
2018-11-20T07:08:42.735Z,995.14
2018-11-20T07:09:42.676Z,995.12
2018-11-20T07:10:42.637Z,995.04
2018-11-20T07:11:42.677Z,995.08
2018-11-20T07:12:42.603Z,995.08
2018-11-20T07:13:42.603Z,995.08
2018-11-20T07:14:42.632Z,995.13
2018-11-20T07:15:42.773Z,995.10
2018-11-20T07:16:42.558Z,995.12
2018-11-20T07:17:42.581Z,995.13
2018-11-20T07:18:42.564Z,995.10
2018-11-20T07:19:42.526Z,995.16
2018-11-20T07:20:42.568Z,995.11
2018-11-20T07:21:42.507Z,995.10
2018-11-20T07:22:42.557Z,995.10
2018-11-20T07:23:42.488Z,995.16
2018-11-20T07:24:42.541Z,995.09
2018-11-20T07:25:42.481Z,995.07
2018-11-20T07:26:42.465Z,995.07
2018-11-20T07:27:42.448Z,995.07
2018-11-20T07:28:42.461Z,995.02
2018-11-20T07:29:42.518Z,994.99
2018-11-20T07:30:42.465Z,995.08
2018-11-20T07:31:42.494Z,995.05
2018-11-20T07:32:42.382Z,994.95
2018-11-20T07:33:42.400Z,995.03
2018-11-20T07:34:42.394Z,995.01
2018-11-20T07:35:42.350Z,995.00
2018-11-20T07:36:42.462Z,995.02
2018-11-20T07:37:42.352Z,995.02
2018-11-20T07:38:42.362Z,994.96
2018-11-20T07:39:42.301Z,995.00
2018-11-20T07:40:42.290Z,995.06
2018-11-20T07:41:42.283Z,994.96
2018-11-20T07:42:42.278Z,994.99
2018-11-20T07:43:42.424Z,994.96
2018-11-20T07:44:42.263Z,995.01
2018-11-20T07:45:42.244Z,994.92
2018-11-20T07:46:42.251Z,994.94
2018-11-20T07:47:42.210Z,994.90
2018-11-20T07:48:42.228Z,994.90
2018-11-20T07:49:42.193Z,994.81
2018-11-20T07:50:42.182Z,994.91
2018-11-20T07:51:42.329Z,994.88
2018-11-20T07:52:42.186Z,994.81
2018-11-20T07:53:42.162Z,994.83
2018-11-20T07:54:42.198Z,994.75
2018-11-20T07:55:42.148Z,994.85
2018-11-20T07:56:42.133Z,994.65
2018-11-20T07:57:42.116Z,994.79
2018-11-20T07:58:42.128Z,994.80
2018-11-20T07:59:42.093Z,994.77
2018-11-20T08:00:42.068Z,994.83
2018-11-20T08:01:42.070Z,994.81
2018-11-20T08:02:42.043Z,994.85
2018-11-20T08:03:42.071Z,994.91
2018-11-20T08:04:42.022Z,994.84
2018-11-20T08:05:42.027Z,994.83
2018-11-20T08:06:42.024Z,994.86
2018-11-20T08:07:42.001Z,994.83
2018-11-20T08:08:42.138Z,994.87
2018-11-20T08:09:42.057Z,994.86
2018-11-20T08:10:41.955Z,994.93
2018-11-20T08:11:41.975Z,994.88
2018-11-20T08:12:41.936Z,994.94
2018-11-20T08:13:41.961Z,994.92
2018-11-20T08:14:41.918Z,995.02
2018-11-20T08:15:41.952Z,995.00
2018-11-20T08:16:41.893Z,994.89
2018-11-20T08:17:41.893Z,994.91
2018-11-20T08:18:41.903Z,994.91
2018-11-20T08:19:41.873Z,994.89
2018-11-20T08:20:41.876Z,994.84
2018-11-20T08:21:41.836Z,994.90
2018-11-20T08:22:41.828Z,994.97
2018-11-20T08:23:41.837Z,994.84
2018-11-20T08:24:41.800Z,994.78
2018-11-20T08:25:41.886Z,994.77
2018-11-20T08:26:41.836Z,994.76
2018-11-20T08:27:41.765Z,994.74
2018-11-20T08:28:41.776Z,994.77
2018-11-20T08:29:41.744Z,994.73
2018-11-20T08:30:41.747Z,994.82
2018-11-20T08:31:41.721Z,994.79
2018-11-20T08:32:41.706Z,994.62
2018-11-20T08:33:41.705Z,994.63
2018-11-20T08:34:41.712Z,994.66
2018-11-20T08:35:41.677Z,994.63
2018-11-20T08:36:41.676Z,994.61
2018-11-20T08:37:41.670Z,994.71
2018-11-20T08:38:41.643Z,994.69
2018-11-20T08:39:41.668Z,994.67
2018-11-20T08:40:41.626Z,994.61
2018-11-20T08:41:41.650Z,994.65
2018-11-20T08:42:41.607Z,994.64
2018-11-20T08:43:41.622Z,994.62
2018-11-20T08:44:41.601Z,994.63
2018-11-20T08:45:41.580Z,994.66
2018-11-20T08:46:41.616Z,994.60
2018-11-20T08:47:41.595Z,994.74
2018-11-20T08:48:41.537Z,994.58
2018-11-20T08:49:41.550Z,994.57
2018-11-20T08:50:41.571Z,994.53
2018-11-20T08:51:41.496Z,994.58
2018-11-20T08:52:41.509Z,994.62
2018-11-20T08:53:41.508Z,994.55
2018-11-20T08:54:41.469Z,994.48
2018-11-20T08:55:41.499Z,994.45
2018-11-20T08:56:41.449Z,994.49
2018-11-20T08:57:41.437Z,994.41
2018-11-20T08:58:41.424Z,994.36
2018-11-20T08:59:41.433Z,994.33
2018-11-20T09:00:41.445Z,994.23
2018-11-20T09:01:41.409Z,994.39
2018-11-20T09:02:41.625Z,994.37
2018-11-20T09:03:41.371Z,994.29
2018-11-20T09:04:41.374Z,994.22
2018-11-20T09:05:41.365Z,994.27
2018-11-20T09:06:41.336Z,994.26
2018-11-20T09:07:41.319Z,994.23
2018-11-20T09:08:41.311Z,994.26
2018-11-20T09:09:41.340Z,994.39
2018-11-20T09:10:41.346Z,994.22
2018-11-20T09:11:41.283Z,994.40
2018-11-20T09:12:41.272Z,994.33
2018-11-20T09:13:41.300Z,994.23
2018-11-20T09:14:41.300Z,994.31
2018-11-20T09:15:41.233Z,994.42
2018-11-20T09:16:41.250Z,994.27
2018-11-20T09:17:41.225Z,994.25
2018-11-20T09:18:41.225Z,994.26
2018-11-20T09:19:41.190Z,994.23
2018-11-20T09:20:41.181Z,994.25
2018-11-20T09:21:41.188Z,994.24
2018-11-20T09:22:41.159Z,994.24
2018-11-20T09:23:41.146Z,994.32
2018-11-20T09:24:41.131Z,994.17
2018-11-20T09:25:41.210Z,994.18
2018-11-20T09:26:41.134Z,994.21
2018-11-20T09:27:41.160Z,994.22
2018-11-20T09:28:41.090Z,994.14
2018-11-20T09:29:41.079Z,994.10
2018-11-20T09:30:41.069Z,994.14
2018-11-20T09:31:41.053Z,994.15
2018-11-20T09:32:41.071Z,994.16
2018-11-20T09:33:41.035Z,994.07
2018-11-20T09:34:41.032Z,994.18
2018-11-20T09:35:41.147Z,994.14
2018-11-20T09:36:41.048Z,994.10
2018-11-20T09:37:41.012Z,994.05
2018-11-20T09:38:41.003Z,994.18
2018-11-20T09:39:40.969Z,994.04
2018-11-20T09:40:40.972Z,994.11
2018-11-20T09:41:41.053Z,994.11
2018-11-20T09:42:40.933Z,994.01
2018-11-20T09:43:40.948Z,994.09
2018-11-20T09:44:40.933Z,994.03
2018-11-20T09:45:40.910Z,994.11
2018-11-20T09:46:40.942Z,994.10
2018-11-20T09:47:40.897Z,994.01
2018-11-20T09:48:40.894Z,994.05
2018-11-20T09:49:40.890Z,994.03
2018-11-20T09:50:40.849Z,993.95
2018-11-20T09:51:40.830Z,993.85
2018-11-20T09:52:40.906Z,993.91
2018-11-20T09:53:40.815Z,993.87
2018-11-20T09:54:40.839Z,993.90
2018-11-20T09:55:40.826Z,993.94
2018-11-20T09:56:40.776Z,993.96
2018-11-20T09:57:40.763Z,993.91
2018-11-20T09:58:40.760Z,993.99
2018-11-20T09:59:40.809Z,994.01
2018-11-20T10:00:40.760Z,993.99
2018-11-20T10:01:40.721Z,993.95
2018-11-20T10:02:40.726Z,993.92
2018-11-20T10:03:40.724Z,993.96
2018-11-20T10:04:40.712Z,994.01
2018-11-20T10:05:40.682Z,993.96
2018-11-20T10:06:40.665Z,993.91
2018-11-20T10:07:40.694Z,993.99
2018-11-20T10:08:40.675Z,993.88
2018-11-20T10:09:40.631Z,993.91
2018-11-20T10:10:40.644Z,993.94
2018-11-20T10:11:40.641Z,993.99
2018-11-20T10:12:40.614Z,993.88
2018-11-20T10:13:40.623Z,993.95
2018-11-20T10:14:40.633Z,993.75
2018-11-20T10:15:40.576Z,993.79
2018-11-20T10:16:40.555Z,993.88
2018-11-20T10:17:40.563Z,993.79
2018-11-20T10:18:40.566Z,993.81
2018-11-20T10:19:40.521Z,993.92
2018-11-20T10:20:40.509Z,993.82
2018-11-20T10:21:40.605Z,993.94
2018-11-20T10:22:40.491Z,993.94
2018-11-20T10:23:40.521Z,993.98
2018-11-20T10:24:40.503Z,993.90
2018-11-20T10:25:40.619Z,993.92
2018-11-20T10:26:40.444Z,993.94
2018-11-20T10:27:40.439Z,993.88
2018-11-20T10:28:40.458Z,993.88
2018-11-20T10:29:40.410Z,993.84
2018-11-20T10:30:40.401Z,993.84
2018-11-20T10:31:40.395Z,993.82
2018-11-20T10:32:40.377Z,993.81
2018-11-20T10:33:40.394Z,993.78
2018-11-20T10:34:40.427Z,993.79
2018-11-20T10:35:40.388Z,993.79
2018-11-20T10:36:40.369Z,993.74
2018-11-20T10:37:40.320Z,993.79
2018-11-20T10:38:40.314Z,993.79
2018-11-20T10:39:40.299Z,993.73
2018-11-20T10:40:40.409Z,993.73
2018-11-20T10:41:40.305Z,993.73
2018-11-20T10:42:40.262Z,993.73
2018-11-20T10:43:40.252Z,993.73
2018-11-20T10:44:40.264Z,993.70
2018-11-20T10:45:40.359Z,993.66
2018-11-20T10:46:40.290Z,993.72
2018-11-20T10:47:40.251Z,993.68
2018-11-20T10:48:40.221Z,993.71
2018-11-20T10:49:40.190Z,993.69
2018-11-20T10:50:40.205Z,993.75
2018-11-20T10:51:40.167Z,993.77
2018-11-20T10:52:40.287Z,993.67
2018-11-20T10:53:40.148Z,993.73
2018-11-20T10:54:40.146Z,993.67
2018-11-20T10:55:40.128Z,993.65
2018-11-20T10:56:40.134Z,993.66
2018-11-20T10:57:40.127Z,993.68
2018-11-20T10:58:40.097Z,993.66
2018-11-20T10:59:40.089Z,993.64
2018-11-20T11:00:40.095Z,993.61
2018-11-20T11:01:40.059Z,993.66
2018-11-20T11:02:42.162Z,993.68
2018-11-20T11:03:40.064Z,993.65
2018-11-20T11:04:40.062Z,993.69
2018-11-20T11:05:40.019Z,993.65
2018-11-20T11:06:40.174Z,993.67
2018-11-20T11:07:40.100Z,993.69
2018-11-20T11:08:40.021Z,993.61
2018-11-20T11:09:39.968Z,993.64
2018-11-20T11:10:39.964Z,993.61
2018-11-20T11:11:40.070Z,993.64
2018-11-20T11:12:39.987Z,993.57
2018-11-20T11:13:40.014Z,993.62
2018-11-20T11:14:40.019Z,993.62
2018-11-20T11:15:39.918Z,993.58
2018-11-20T11:16:39.885Z,993.55
2018-11-20T11:17:39.912Z,993.53
2018-11-20T11:18:39.909Z,993.63
2018-11-20T11:19:39.854Z,993.49
2018-11-20T11:20:39.960Z,993.52
2018-11-20T11:21:39.848Z,993.62
2018-11-20T11:22:39.825Z,993.61
2018-11-20T11:23:39.835Z,993.59
2018-11-20T11:24:39.802Z,993.55
2018-11-20T11:25:39.786Z,993.50
2018-11-20T11:26:39.799Z,993.61
2018-11-20T11:27:39.800Z,993.52
2018-11-20T11:28:39.769Z,993.50
2018-11-20T11:29:39.743Z,993.47
2018-11-20T11:30:39.761Z,993.60
2018-11-20T11:31:39.731Z,993.55
2018-11-20T11:32:39.723Z,993.40
2018-11-20T11:33:39.714Z,993.38
2018-11-20T11:34:39.692Z,993.51
2018-11-20T11:35:39.741Z,993.52
2018-11-20T11:36:39.675Z,993.49
2018-11-20T11:37:39.667Z,993.42
2018-11-20T11:38:39.660Z,993.37
2018-11-20T11:39:39.639Z,993.38
2018-11-20T11:40:39.644Z,993.40
2018-11-20T11:41:39.635Z,993.36
2018-11-20T11:42:39.616Z,993.33
2018-11-20T11:43:39.595Z,993.30
2018-11-20T11:44:39.581Z,993.34
2018-11-20T11:45:39.593Z,993.33
2018-11-20T11:46:39.553Z,993.39
2018-11-20T11:47:39.557Z,993.35
2018-11-20T11:48:39.570Z,993.35
2018-11-20T11:49:39.524Z,993.29
2018-11-20T11:50:39.514Z,993.23
2018-11-20T11:51:39.512Z,993.26
2018-11-20T11:52:39.494Z,993.19
2018-11-20T11:53:39.511Z,993.22
2018-11-20T11:54:39.467Z,993.25
2018-11-20T11:55:39.466Z,993.20
2018-11-20T11:56:39.450Z,993.20
2018-11-20T11:57:39.460Z,993.27
2018-11-20T11:58:39.432Z,993.23
2018-11-20T11:59:39.426Z,993.23
2018-11-20T12:00:39.407Z,993.23
2018-11-20T12:03:09.823Z,993.22
2018-11-20T12:04:09.807Z,993.23
2018-11-20T12:05:09.801Z,993.18
2018-11-20T12:06:09.812Z,993.13
2018-11-20T12:07:09.776Z,993.17
2018-11-20T12:08:09.761Z,993.18
2018-11-20T12:09:09.756Z,993.14
2018-11-20T12:10:09.769Z,993.09
2018-11-20T12:11:09.754Z,993.13
2018-11-20T12:12:09.718Z,993.09
2018-11-20T12:13:09.713Z,993.10
2018-11-20T12:14:09.698Z,993.13
2018-11-20T12:15:09.719Z,993.13
2018-11-20T12:16:09.676Z,993.12
2018-11-20T12:17:09.665Z,993.18
2018-11-20T12:18:09.650Z,993.05
2018-11-20T12:19:09.649Z,993.10
2018-11-20T12:20:10.703Z,993.13
2018-11-20T12:21:09.627Z,993.00
2018-11-20T12:22:09.614Z,993.11
2018-11-20T12:23:09.596Z,993.14
2018-11-20T12:24:09.587Z,993.13
2018-11-20T12:25:09.595Z,993.15
2018-11-20T12:26:09.590Z,993.10
2018-11-20T12:27:09.583Z,993.13
2018-11-20T12:28:09.553Z,993.12
2018-11-20T12:29:09.530Z,993.06
2018-11-20T12:30:09.525Z,993.08